createdAt,value
2023-03-22T00:10:15.532Z,80.3
2023-03-22T00:25:24.824Z,80.3
2023-03-22T00:40:33.918Z,80.3
2023-03-22T00:55:43.853Z,80.4
2023-03-22T01:12:03.053Z,80.2
2023-03-22T01:27:13.250Z,81.1
2023-03-22T01:42:22.570Z,81.4
2023-03-22T01:57:31.891Z,80.6
2023-03-22T02:12:41.612Z,80.5
2023-03-22T02:27:51.585Z,80.4
2023-03-22T02:43:01.527Z,80.4
2023-03-22T02:58:10.320Z,80.9
2023-03-22T03:13:19.395Z,80.3
2023-03-22T03:28:30.033Z,80.2
2023-03-22T03:43:39.575Z,80.2
2023-03-22T03:58:48.906Z,80.2
2023-03-22T04:13:58.009Z,80
2023-03-22T04:29:08.552Z,79.6
2023-03-22T04:44:18.229Z,79.5
2023-03-22T04:59:29.747Z,79.8
2023-03-22T05:14:39.617Z,80
2023-03-22T05:29:49.101Z,80
2023-03-22T05:44:58.684Z,79.9
2023-03-22T06:00:08.306Z,79.9
2023-03-22T06:15:17.898Z,79.9
2023-03-22T06:30:30.935Z,79.7
2023-03-22T06:45:42.879Z,79.6
2023-03-22T07:00:52.825Z,79.5
2023-03-22T07:16:02.783Z,79.4
2023-03-22T07:31:13.068Z,78.9
2023-03-22T07:46:23.374Z,78.7
2023-03-22T08:01:34.062Z,78.3
2023-03-22T08:16:44.768Z,78.3
2023-03-22T08:31:55.039Z,78.2
2023-03-22T08:47:04.716Z,78
2023-03-22T09:02:15.507Z,77.8
2023-03-22T09:17:25.827Z,77.7
2023-03-22T09:32:35.909Z,77.3
2023-03-22T09:47:46.301Z,76.8
2023-03-22T10:02:56.535Z,76.4
2023-03-22T10:18:06.656Z,75.9
2023-03-22T10:33:17.007Z,75.4
2023-03-22T10:48:28.409Z,74.7
2023-03-22T11:03:38.591Z,74.3
2023-03-22T11:18:48.126Z,74
2023-03-22T11:33:58.069Z,73.7
2023-03-22T11:49:08.333Z,73.2
2023-03-22T12:04:18.235Z,72.4
2023-03-22T12:19:29.982Z,71
2023-03-22T12:34:40.029Z,71.4
2023-03-22T12:49:49.795Z,71.7
2023-03-22T13:04:59.525Z,71.6
2023-03-22T13:20:09.253Z,71.4
2023-03-22T13:35:19.361Z,71.6
2023-03-22T13:50:33.068Z,71.9
2023-03-22T14:05:42.436Z,71.7
2023-03-22T14:20:51.571Z,72.2
2023-03-22T14:51:11.530Z,72.5
2023-03-22T15:06:21.210Z,72.5
2023-03-22T15:21:31.233Z,72.2
2023-03-22T15:36:41.306Z,71.9
2023-03-22T15:51:50.576Z,71.9
2023-03-22T16:06:59.914Z,71.4
2023-03-22T16:22:08.951Z,71.5
2023-03-22T16:37:19.482Z,72.2
2023-03-22T16:52:31.646Z,72.2
2023-03-22T17:07:42.806Z,72.3
2023-03-22T17:22:52.737Z,71.8
2023-03-22T17:38:03.490Z,72.2
2023-03-22T18:09:31.964Z,72.2
2023-03-22T18:24:41.411Z,72.3
2023-03-22T18:41:20.362Z,72.3
2023-03-22T18:56:42.421Z,72.4
2023-03-22T19:11:52.168Z,72.5
2023-03-22T19:27:25.232Z,72.4
2023-03-22T19:42:38.720Z,72.3
2023-03-22T19:57:50.389Z,72.5
2023-03-22T20:13:00.558Z,72.2
2023-03-22T20:28:10.594Z,72
2023-03-22T20:43:20.324Z,71.9
2023-03-22T20:58:30.562Z,71.7
2023-03-22T21:13:40.258Z,71.9
2023-03-22T21:28:50.039Z,71.9
2023-03-22T21:43:59.600Z,71.9
2023-03-22T21:59:09.575Z,71.9
2023-03-22T22:14:19.643Z,71.9
2023-03-22T22:29:30.616Z,71.9
2023-03-22T22:44:40.528Z,71.9
2023-03-22T22:59:49.934Z,72
2023-03-22T23:14:59.804Z,72.1
2023-03-22T23:30:08.715Z,72.2
2023-03-22T23:45:19.006Z,72.2
